Time;durP1;ratioP1;P1;durP2;ratioP2;P2;SDS_P1;SDS_P2;PMS_P1;PMS_P2;Temp;Humidity;BMP_temperature;BMP_pressure;BME280_temperature;BME280_humidity;BME280_pressure;Samples;Min_cycle;Max_cycle;Signal;HPM_P1;HPM_P2
2021/12/01 00:00:12;;;;;;;3.30;0.40;;;;;;;3.03;77.48;98809.44;104514;1319;24315;-80
2021/12/01 00:03:04;;;;;;;4.00;0.30;;;;;;;3.02;77.66;98818.08;104451;1315;25947;-80
2021/12/01 00:05:35;;;;;;;8.70;0.60;;;;;;;3.01;77.76;98813.58;104578;1318;22532;-81
2021/12/01 00:08:06;;;;;;;6.80;0.70;;;;;;;2.99;77.82;98827.34;104519;1318;22582;-81
2021/12/01 00:10:39;;;;;;;6.60;0.50;;;;;;;2.98;77.85;98830.77;104529;1313;22641;-81
2021/12/01 00:13:14;;;;;;;4.60;0.60;;;;;;;2.97;77.96;98842.63;104688;1315;22595;-81
2021/12/01 00:15:47;;;;;;;5.60;0.50;;;;;;;2.96;78.11;98849.40;104603;1318;24813;-80
2021/12/01 00:18:18;;;;;;;2.70;0.30;;;;;;;2.95;78.19;98855.81;104561;1318;22869;-80
2021/12/01 00:20:50;;;;;;;6.60;0.80;;;;;;;2.94;78.21;98862.01;104516;1319;22595;-81
2021/12/01 00:23:21;;;;;;;6.10;0.40;;;;;;;2.92;78.28;98868.52;104586;1318;22521;-81
2021/12/01 00:25:52;;;;;;;8.20;0.50;;;;;;;2.91;78.30;98874.02;104649;1315;24009;-81
2021/12/01 00:28:24;;;;;;;7.40;0.40;;;;;;;2.90;78.44;98876.20;104219;1316;22589;-81
2021/12/01 00:30:57;;;;;;;5.60;0.50;;;;;;;2.89;78.51;98875.11;104398;1315;24248;-81
2021/12/01 00:33:28;;;;;;;7.80;0.60;;;;;;;2.88;78.45;98881.30;104483;1317;22577;-79
2021/12/01 00:36:00;;;;;;;5.60;0.50;;;;;;;2.88;78.57;98892.20;103906;1317;22572;-78
2021/12/01 00:38:30;;;;;;;6.10;0.40;;;;;;;2.85;78.59;98889.25;103916;1315;22633;-79
2021/12/01 00:41:04;;;;;;;8.30;0.50;;;;;;;2.83;78.66;98893.55;103805;1312;22662;-78
2021/12/01 00:43:39;;;;;;;6.90;0.50;;;;;;;2.83;78.68;98900.66;103807;1317;25159;-78
2021/12/01 00:46:19;;;;;;;6.80;0.50;;;;;;;2.82;78.77;98904.19;103866;1318;24222;-78
2021/12/01 00:48:50;;;;;;;9.30;0.70;;;;;;;2.80;78.88;98910.02;103793;1318;22670;-78
2021/12/01 00:51:21;;;;;;;3.70;0.40;;;;;;;2.79;78.81;98912.91;103830;1318;25230;-78
2021/12/01 00:53:52;;;;;;;3.90;0.40;;;;;;;2.77;78.80;98922.80;103889;1319;22641;-78
2021/12/01 00:56:23;;;;;;;4.00;0.50;;;;;;;2.76;78.99;98921.11;103803;1317;25236;-78
2021/12/01 00:58:54;;;;;;;4.20;0.30;;;;;;;2.75;78.87;98925.88;103651;1318;25365;-78
2021/12/01 01:01:24;;;;;;;8.50;0.90;;;;;;;2.74;78.93;98927.19;103726;1315;25293;-78
2021/12/01 01:03:55;;;;;;;3.10;0.30;;;;;;;2.73;78.91;98935.95;103743;1318;22537;-78
2021/12/01 01:06:27;;;;;;;4.10;0.40;;;;;;;2.72;78.90;98947.50;103761;1318;23343;-78
2021/12/01 01:08:58;;;;;;;6.20;1.30;;;;;;;2.71;78.90;98958.83;103770;1319;24238;-78
2021/12/01 01:17:18;;;;;;;2.20;0.40;;;;;;;2.67;78.88;98979.23;103199;1322;23162;-78
2021/12/01 01:19:48;;;;;;;3.00;0.30;;;;;;;2.65;79.20;98984.97;103311;1323;22620;-78
2021/12/01 01:22:19;;;;;;;4.70;0.60;;;;;;;2.65;79.20;98991.52;103202;1323;22646;-78
2021/12/01 01:24:50;;;;;;;3.60;0.40;;;;;;;2.64;79.14;99002.10;103202;1321;22608;-78
2021/12/01 01:27:21;;;;;;;3.90;0.30;;;;;;;2.63;79.03;99001.43;103190;1321;22656;-78
2021/12/01 01:29:51;;;;;;;4.10;0.40;;;;;;;2.63;79.01;99013.16;103225;1325;22600;-78
2021/12/01 01:32:22;;;;;;;5.50;0.30;;;;;;;2.63;78.97;99014.86;103268;1325;22583;-78
2021/12/01 01:34:53;;;;;;;2.60;0.50;;;;;;;2.64;79.10;99023.81;103248;1318;23100;-78
2021/12/01 01:37:24;;;;;;;3.80;0.30;;;;;;;2.64;78.94;99028.93;103220;1321;24359;-78
2021/12/01 01:39:55;;;;;;;3.80;0.30;;;;;;;2.64;78.87;99020.99;103188;1324;22648;-78
2021/12/01 01:42:26;;;;;;;3.40;0.20;;;;;;;2.64;78.69;99034.77;103537;1324;24185;-78
2021/12/01 01:44:57;;;;;;;4.30;0.30;;;;;;;2.64;78.70;99031.47;103294;1324;22566;-78
2021/12/01 01:47:28;;;;;;;4.00;0.50;;;;;;;2.64;78.45;99035.33;103230;1324;22913;-78
2021/12/01 01:50:02;;;;;;;3.70;0.30;;;;;;;2.64;78.72;99041.79;103255;1324;22639;-78
2021/12/01 01:52:34;;;;;;;5.30;0.40;;;;;;;2.64;78.79;99036.97;103451;1320;24205;-78
2021/12/01 01:55:07;;;;;;;1.40;0.20;;;;;;;2.63;78.89;99038.41;103839;1317;25556;-78
2021/12/01 01:57:38;;;;;;;6.30;0.50;;;;;;;2.63;78.96;99044.96;103881;1319;22555;-78
2021/12/01 02:00:11;;;;;;;3.20;0.40;;;;;;;2.62;79.06;99047.69;103696;1319;29357;-78
2021/12/01 02:02:44;;;;;;;2.70;0.30;;;;;;;2.60;79.07;99048.54;103758;1319;22596;-78
2021/12/01 02:05:15;;;;;;;2.70;0.30;;;;;;;2.59;79.01;99050.50;103680;1317;22622;-78
2021/12/01 02:07:46;;;;;;;4.20;0.30;;;;;;;2.57;79.08;99051.67;103772;1317;25419;-79
2021/12/01 02:10:18;;;;;;;2.90;0.50;;;;;;;2.55;78.97;99048.76;103773;1318;22586;-78
2021/12/01 02:12:50;;;;;;;4.30;0.40;;;;;;;2.54;78.92;99048.96;103775;1319;22564;-78
2021/12/01 02:15:21;;;;;;;3.70;0.40;;;;;;;2.51;78.86;99051.83;103762;1318;22592;-78
2021/12/01 02:17:52;;;;;;;6.20;0.40;;;;;;;2.46;78.93;99050.10;103749;1319;22610;-78
2021/12/01 02:20:24;;;;;;;4.80;0.50;;;;;;;2.41;78.81;99048.48;103699;1319;23343;-78
2021/12/01 02:23:00;;;;;;;1.50;0.30;;;;;;;2.36;78.75;99047.25;103749;1319;23136;-78
2021/12/01 02:25:31;;;;;;;4.70;0.50;;;;;;;2.32;78.85;99047.80;103665;1313;23205;-78
2021/12/01 02:28:02;;;;;;;2.00;0.30;;;;;;;2.29;78.89;99048.24;103775;1317;24320;-78
2021/12/01 02:30:33;;;;;;;4.60;0.30;;;;;;;2.25;78.95;99050.44;103771;1318;26546;-78
2021/12/01 02:33:05;;;;;;;2.60;0.40;;;;;;;2.23;79.02;99061.02;103699;1318;22606;-78
2021/12/01 02:35:36;;;;;;;4.10;0.40;;;;;;;2.20;79.03;99061.50;103671;1313;22613;-78
2021/12/01 02:38:07;;;;;;;2.40;0.50;;;;;;;2.19;79.15;99069.09;103775;1319;22619;-78
2021/12/01 02:40:38;;;;;;;2.40;0.40;;;;;;;2.17;79.20;99073.33;103697;1312;22593;-78
2021/12/01 02:43:25;;;;;;;5.60;0.50;;;;;;;2.14;79.41;99085.61;103701;1317;22809;-79
2021/12/01 02:45:57;;;;;;;3.30;0.40;;;;;;;2.12;79.47;99092.33;103256;1312;22583;-57
2021/12/01 02:48:30;;;;;;;4.20;0.40;;;;;;;2.11;79.50;99092.86;103291;1318;24448;-59
2021/12/01 02:51:04;;;;;;;3.30;1.00;;;;;;;2.10;79.56;99100.03;103353;1318;24253;-59
2021/12/01 02:53:35;;;;;;;4.30;0.40;;;;;;;2.09;79.67;99105.10;103903;1319;22894;-56
2021/12/01 02:56:07;;;;;;;5.80;0.40;;;;;;;2.09;79.82;99105.56;106645;1319;22286;-60
2021/12/01 02:58:40;;;;;;;7.40;0.40;;;;;;;2.11;79.89;99112.37;106657;1319;22538;-58
2021/12/01 03:01:16;;;;;;;1.10;0.20;;;;;;;2.10;79.90;99113.55;106659;1318;23067;-59
2021/12/01 03:03:49;;;;;;;1.70;0.40;;;;;;;2.10;79.95;99116.00;106685;1318;22435;-58
2021/12/01 03:06:25;;;;;;;3.10;0.40;;;;;;;2.10;79.90;99112.05;106603;1319;22352;-62
2021/12/01 03:08:58;;;;;;;2.60;0.30;;;;;;;2.11;79.93;99115.83;106087;1319;25274;-59
2021/12/01 03:11:29;;;;;;;3.70;0.30;;;;;;;2.09;79.87;99118.63;103240;1315;23189;-59
2021/12/01 03:14:00;;;;;;;5.30;0.50;;;;;;;2.08;79.83;99118.34;103347;1318;22631;-58
2021/12/01 03:16:32;;;;;;;10.80;0.50;;;;;;;2.09;79.89;99121.71;103236;1318;22640;-57
2021/12/01 03:19:03;;;;;;;1.90;0.30;;;;;;;2.10;79.92;99117.19;103284;1315;23498;-57
2021/12/01 03:21:37;;;;;;;4.70;0.40;;;;;;;2.11;79.98;99116.89;103302;1318;23995;-57
2021/12/01 03:24:10;;;;;;;3.50;0.40;;;;;;;2.12;79.93;99119.07;103432;1319;22817;-60
2021/12/01 03:26:42;;;;;;;4.60;0.50;;;;;;;2.13;79.93;99114.64;103277;1319;24244;-57
2021/12/01 03:29:15;;;;;;;1.90;0.30;;;;;;;2.13;79.91;99106.69;103274;1313;22617;-58
2021/12/01 03:31:46;;;;;;;2.80;0.30;;;;;;;2.13;79.75;99107.15;103332;1316;23991;-57
2021/12/01 03:34:18;;;;;;;6.60;0.60;;;;;;;2.13;79.75;99103.63;103234;1318;22644;-57
2021/12/01 03:36:49;;;;;;;2.10;0.30;;;;;;;2.12;79.80;99102.07;103293;1315;22567;-57
2021/12/01 03:39:20;;;;;;;4.30;0.50;;;;;;;2.12;79.70;99100.97;103239;1315;22602;-57
2021/12/01 03:41:52;;;;;;;6.20;0.60;;;;;;;2.12;79.67;99091.63;103283;1320;22568;-57
2021/12/01 03:44:23;;;;;;;5.30;0.50;;;;;;;2.10;79.65;99085.02;103260;1319;25440;-58
2021/12/01 03:46:54;;;;;;;4.60;0.40;;;;;;;2.07;79.57;99085.83;103213;1315;22668;-58
2021/12/01 03:49:25;;;;;;;9.00;0.60;;;;;;;2.05;79.50;99090.09;103323;1319;24300;-57
2021/12/01 03:51:57;;;;;;;5.40;0.60;;;;;;;2.03;79.61;99090.02;103224;1316;25312;-59
2021/12/01 03:54:28;;;;;;;5.50;0.60;;;;;;;2.01;79.63;99090.55;103146;1319;26804;-59
2021/12/01 03:56:59;;;;;;;7.60;0.50;;;;;;;1.99;79.68;99083.23;103221;1319;22564;-60
2021/12/01 03:59:31;;;;;;;4.50;0.50;;;;;;;1.99;79.80;99083.67;103253;1315;22555;-55
2021/12/01 04:02:03;;;;;;;1.80;0.50;;;;;;;1.99;79.78;99084.23;103255;1318;22678;-56
2021/12/01 04:04:35;;;;;;;7.10;0.50;;;;;;;1.99;79.79;99087.30;103267;1319;22720;-57
2021/12/01 04:07:06;;;;;;;9.60;0.50;;;;;;;2.00;79.79;99082.96;103340;1315;24240;-60
2021/12/01 04:09:39;;;;;;;5.40;0.50;;;;;;;1.99;79.73;99079.19;103264;1318;22592;-59
2021/12/01 04:12:12;;;;;;;3.90;0.50;;;;;;;1.99;79.71;99075.36;103275;1319;22531;-58
2021/12/01 04:14:43;;;;;;;6.30;0.80;;;;;;;1.99;79.69;99069.06;103367;1318;23107;-59
2021/12/01 04:17:14;;;;;;;5.60;0.50;;;;;;;1.97;79.60;99074.50;103242;1318;22594;-57
2021/12/01 04:19:45;;;;;;;5.00;0.70;;;;;;;1.93;79.55;99070.38;103263;1318;25387;-56
2021/12/01 04:22:16;;;;;;;3.50;0.50;;;;;;;1.91;79.63;99067.22;103265;1317;22839;-55
2021/12/01 04:24:49;;;;;;;4.00;0.60;;;;;;;1.89;79.61;99067.55;103270;1317;24277;-57
2021/12/01 04:27:20;;;;;;;9.40;0.70;;;;;;;1.87;79.63;99065.71;103230;1319;22619;-57
2021/12/01 04:29:51;;;;;;;3.10;0.50;;;;;;;1.84;79.70;99064.02;103252;1317;24266;-58
2021/12/01 04:32:22;;;;;;;4.10;0.50;;;;;;;1.82;79.72;99057.19;103350;1312;24282;-56
2021/12/01 04:34:53;;;;;;;4.50;0.60;;;;;;;1.79;79.66;99059.48;103266;1318;23149;-59
2021/12/01 04:37:24;;;;;;;3.20;0.50;;;;;;;1.79;79.88;99058.39;103229;1318;25102;-55
2021/12/01 04:39:56;;;;;;;6.20;0.60;;;;;;;1.79;79.72;99062.40;103221;1315;25528;-58
2021/12/01 04:42:27;;;;;;;6.80;0.50;;;;;;;1.78;79.75;99065.95;103327;1319;25322;-57
2021/12/01 04:44:59;;;;;;;2.20;0.40;;;;;;;1.78;79.80;99061.89;103316;1317;24237;-57
2021/12/01 04:47:34;;;;;;;7.60;0.80;;;;;;;1.77;79.67;99064.20;103382;1313;22594;-57
2021/12/01 04:50:07;;;;;;;4.40;0.70;;;;;;;1.74;79.59;99068.32;103316;1314;22531;-56
2021/12/01 04:52:38;;;;;;;6.10;0.70;;;;;;;1.71;79.54;99066.24;104081;1313;22599;-56
2021/12/01 04:55:13;;;;;;;6.40;0.50;;;;;;;1.66;79.48;99064.20;105063;1318;22777;-54
2021/12/01 04:57:47;;;;;;;5.60;0.70;;;;;;;1.63;79.50;99062.42;103753;1313;24115;-58
2021/12/01 05:00:21;;;;;;;6.10;0.70;;;;;;;1.61;79.55;99064.31;103375;1318;22704;-55
2021/12/01 05:02:52;;;;;;;2.10;0.40;;;;;;;1.59;79.56;99059.43;103320;1313;22562;-55
2021/12/01 05:05:23;;;;;;;5.60;0.70;;;;;;;1.58;79.60;99050.96;103292;1313;24234;-57
2021/12/01 05:07:56;;;;;;;5.80;0.60;;;;;;;1.57;79.66;99050.00;103073;1312;371755;-58
2021/12/01 05:10:27;;;;;;;4.20;0.60;;;;;;;1.56;79.61;99045.54;103198;1317;22570;-57
2021/12/01 05:12:59;;;;;;;7.00;0.70;;;;;;;1.55;79.73;99042.59;103080;1318;26540;-61
2021/12/01 05:15:30;;;;;;;7.80;0.70;;;;;;;1.55;79.63;99051.33;103212;1312;22568;-57
2021/12/01 05:18:02;;;;;;;7.50;0.90;;;;;;;1.53;79.77;99051.28;103542;1319;24244;-56
2021/12/01 05:20:33;;;;;;;6.10;0.80;;;;;;;1.52;79.65;99054.01;103457;1318;22583;-58
2021/12/01 05:23:05;;;;;;;8.90;1.00;;;;;;;1.51;79.51;99058.06;103250;1319;25400;-56
2021/12/01 05:25:36;;;;;;;8.60;0.90;;;;;;;1.48;79.57;99055.56;103236;1312;23011;-57
2021/12/01 05:28:08;;;;;;;12.40;1.20;;;;;;;1.46;79.57;99056.42;103313;1313;22632;-58
2021/12/01 05:30:39;;;;;;;10.80;1.90;;;;;;;1.44;79.67;99058.30;103189;1312;22709;-58
2021/12/01 05:33:11;;;;;;;15.70;2.30;;;;;;;1.42;79.72;99059.53;103247;1318;26582;-59
2021/12/01 05:35:43;;;;;;;12.50;3.30;;;;;;;1.40;79.66;99058.76;103274;1319;22566;-58
2021/12/01 05:38:15;;;;;;;15.20;3.00;;;;;;;1.38;79.77;99054.65;103307;1312;22648;-58
2021/12/01 05:40:49;;;;;;;13.60;2.10;;;;;;;1.37;79.73;99052.90;103313;1318;22584;-58
2021/12/01 05:43:23;;;;;;;16.70;2.10;;;;;;;1.36;79.87;99050.27;103336;1312;22637;-57
2021/12/01 05:45:54;;;;;;;8.70;1.90;;;;;;;1.34;79.88;99051.50;103327;1312;22692;-59
2021/12/01 05:48:27;;;;;;;10.60;1.50;;;;;;;1.32;79.93;99047.64;103176;1314;24240;-57
2021/12/01 05:50:59;;;;;;;13.90;2.40;;;;;;;1.28;79.84;99041.17;103306;1319;22570;-57
2021/12/01 05:53:30;;;;;;;12.10;2.50;;;;;;;1.24;80.02;99036.02;103367;1317;22802;-55
2021/12/01 05:56:04;;;;;;;12.10;2.50;;;;;;;1.20;80.14;99029.60;103242;1312;23925;-58
2021/12/01 05:58:35;;;;;;;16.20;2.70;;;;;;;1.14;80.42;99024.73;103313;1312;25596;-57
2021/12/01 06:01:06;;;;;;;12.40;2.00;;;;;;;1.09;80.60;99017.64;103259;1312;24445;-57
2021/12/01 06:03:39;;;;;;;16.80;2.20;;;;;;;1.07;80.66;99014.35;103238;1312;24921;-58
2021/12/01 06:06:11;;;;;;;11.70;2.10;;;;;;;1.06;80.86;99007.63;103247;1313;22517;-62
2021/12/01 06:08:43;;;;;;;14.20;2.10;;;;;;;1.07;81.01;99010.49;103307;1312;23136;-54
2021/12/01 06:11:16;;;;;;;14.40;2.10;;;;;;;1.04;81.02;99007.77;103160;1312;22664;-56
2021/12/01 06:13:50;;;;;;;14.60;2.40;;;;;;;1.04;81.11;99000.10;103208;1318;22574;-57
2021/12/01 06:16:23;;;;;;;16.70;2.60;;;;;;;1.02;81.26;98997.59;103395;1312;24251;-57
2021/12/01 06:18:55;;;;;;;20.40;3.00;;;;;;;1.01;81.46;98992.26;103310;1313;23117;-57
2021/12/01 06:21:26;;;;;;;13.60;2.70;;;;;;;1.01;81.47;98989.06;103175;1312;22570;-57
2021/12/01 06:23:57;;;;;;;17.20;3.80;;;;;;;1.00;81.66;98987.27;103240;1317;22582;-56
2021/12/01 06:26:29;;;;;;;23.60;5.50;;;;;;;1.02;81.74;98984.54;103099;1313;24001;-58
2021/12/01 06:29:00;;;;;;;51.30;12.80;;;;;;;1.01;81.84;98979.87;103184;1313;22563;-60
2021/12/01 06:31:31;;;;;;;87.40;26.60;;;;;;;1.02;81.86;98969.94;103137;1314;23093;-56
2021/12/01 06:34:02;;;;;;;94.70;30.80;;;;;;;1.02;82.11;98970.31;103216;1312;22667;-57
2021/12/01 06:36:33;;;;;;;67.80;21.20;;;;;;;1.03;82.10;98969.65;103161;1312;24381;-56
2021/12/01 06:39:07;;;;;;;53.00;16.50;;;;;;;1.04;82.16;98975.06;103210;1313;25234;-59
2021/12/01 06:41:38;;;;;;;39.40;11.50;;;;;;;1.04;82.24;98973.63;103140;1317;25261;-58
2021/12/01 06:44:09;;;;;;;35.20;12.70;;;;;;;1.03;82.20;98979.46;103006;1312;22606;-60
2021/12/01 06:46:42;;;;;;;35.70;12.30;;;;;;;1.04;82.27;98975.77;103287;1313;22568;-57
2021/12/01 06:49:12;;;;;;;23.30;7.90;;;;;;;1.04;82.28;98973.54;103167;1312;23021;-59
2021/12/01 06:51:44;;;;;;;23.40;7.50;;;;;;;1.06;82.36;98965.06;103034;1312;22627;-58
2021/12/01 06:54:15;;;;;;;23.90;7.00;;;;;;;1.09;82.34;98958.70;103250;1312;24276;-59
2021/12/01 06:56:48;;;;;;;21.90;5.90;;;;;;;1.11;82.36;98950.77;103080;1312;22640;-59
2021/12/01 06:59:19;;;;;;;19.70;5.40;;;;;;;1.15;82.48;98944.29;103089;1312;23165;-58
2021/12/01 07:01:50;;;;;;;19.50;5.70;;;;;;;1.16;82.45;98940.53;103119;1312;24232;-58
2021/12/01 07:04:21;;;;;;;25.30;7.90;;;;;;;1.17;82.52;98936.63;103535;1312;22589;-59
2021/12/01 07:06:52;;;;;;;27.50;10.70;;;;;;;1.19;82.51;98933.45;103128;1312;24267;-58
2021/12/01 07:09:24;;;;;;;46.40;17.20;;;;;;;1.21;82.58;98930.85;103261;1312;22572;-59
2021/12/01 07:11:56;;;;;;;57.90;21.30;;;;;;;1.22;82.64;98927.90;103277;1312;25315;-59
2021/12/01 07:14:27;;;;;;;44.00;16.20;;;;;;;1.25;82.66;98924.19;103142;1312;24254;-58
2021/12/01 07:16:59;;;;;;;31.20;10.10;;;;;;;1.28;82.68;98922.59;103245;1312;22576;-60
2021/12/01 07:19:30;;;;;;;38.40;12.80;;;;;;;1.31;82.74;98912.75;103402;1315;22582;-59
2021/12/01 07:22:02;;;;;;;38.80;11.90;;;;;;;1.35;82.79;98904.59;103217;1315;23799;-59
2021/12/01 07:24:33;;;;;;;33.40;10.60;;;;;;;1.39;82.79;98905.50;103188;1312;22590;-58
2021/12/01 07:27:05;;;;;;;31.20;10.40;;;;;;;1.42;82.80;98897.84;103145;1318;25327;-61
2021/12/01 07:29:36;;;;;;;31.40;10.10;;;;;;;1.46;82.94;98895.88;103289;1313;22577;-59
2021/12/01 07:32:09;;;;;;;28.00;7.70;;;;;;;1.49;82.88;98889.43;103126;1312;25507;-60
2021/12/01 07:34:43;;;;;;;27.80;8.00;;;;;;;1.51;82.87;98881.34;103181;1312;22615;-56
2021/12/01 07:37:17;;;;;;;29.90;7.10;;;;;;;1.53;82.87;98877.25;103102;1313;22923;-60
2021/12/01 07:39:48;;;;;;;22.70;5.90;;;;;;;1.56;82.86;98873.11;103295;1312;23154;-59
2021/12/01 07:42:19;;;;;;;38.30;7.20;;;;;;;1.60;82.92;98866.07;103388;1312;22630;-59
2021/12/01 07:44:50;;;;;;;28.10;7.80;;;;;;;1.63;82.82;98862.53;103274;1317;22586;-58
2021/12/01 07:47:22;;;;;;;26.90;8.70;;;;;;;1.70;83.01;98851.33;104326;1312;22609;-59
2021/12/01 07:49:53;;;;;;;24.40;6.90;;;;;;;1.76;83.05;98842.02;104682;1312;22620;-60
2021/12/01 07:52:26;;;;;;;28.70;7.10;;;;;;;1.83;83.03;98842.92;103345;1312;22567;-60
2021/12/01 07:54:58;;;;;;;24.50;6.30;;;;;;;1.88;82.99;98843.59;103458;1312;22586;-59
2021/12/01 07:57:30;;;;;;;19.50;5.00;;;;;;;1.93;82.92;98837.46;103155;1313;24066;-60
2021/12/01 08:00:01;;;;;;;20.80;5.50;;;;;;;1.99;82.97;98831.27;103236;1313;25301;-59
2021/12/01 08:02:33;;;;;;;16.70;4.60;;;;;;;2.03;82.91;98824.58;103200;1312;22599;-62
2021/12/01 08:05:05;;;;;;;24.10;5.00;;;;;;;2.07;82.95;98824.30;103243;1313;25391;-58
2021/12/01 08:07:38;;;;;;;23.00;4.60;;;;;;;2.13;82.91;98817.56;103634;1313;22664;-59
2021/12/01 08:10:11;;;;;;;20.00;4.90;;;;;;;2.17;83.04;98814.84;103434;1318;23136;-59
2021/12/01 08:12:42;;;;;;;21.20;4.60;;;;;;;2.22;83.02;98814.33;103442;1318;23596;-59
2021/12/01 08:15:14;;;;;;;20.60;5.20;;;;;;;2.27;83.00;98811.92;103489;1317;22615;-58
2021/12/01 08:17:45;;;;;;;24.40;5.70;;;;;;;2.31;82.99;98804.27;103459;1317;25262;-59
2021/12/01 08:20:17;;;;;;;24.00;6.80;;;;;;;2.36;83.06;98800.77;103411;1317;22569;-59
2021/12/01 08:22:48;;;;;;;21.80;4.20;;;;;;;2.40;83.07;98805.39;103477;1312;22646;-58
2021/12/01 08:25:20;;;;;;;17.20;4.40;;;;;;;2.42;82.92;98801.53;103458;1312;25345;-59
2021/12/01 08:27:52;;;;;;;25.70;5.30;;;;;;;2.44;83.07;98798.39;103294;1312;22552;-60
2021/12/01 08:30:24;;;;;;;19.80;5.30;;;;;;;2.48;83.11;98796.39;103570;1312;24355;-59
2021/12/01 08:32:55;;;;;;;22.40;4.60;;;;;;;2.51;83.19;98787.85;103651;1313;25268;-56
2021/12/01 08:35:27;;;;;;;13.20;2.40;;;;;;;2.54;83.28;98786.67;103583;1317;25880;-59
2021/12/01 08:37:59;;;;;;;16.20;2.90;;;;;;;2.56;83.18;98784.29;103563;1312;24049;-60
2021/12/01 08:40:30;;;;;;;14.90;3.00;;;;;;;2.60;83.37;98779.98;103377;1312;25361;-60
2021/12/01 08:43:01;;;;;;;17.80;4.70;;;;;;;2.63;83.44;98776.45;103668;1312;25469;-58
2021/12/01 08:45:33;;;;;;;21.50;4.70;;;;;;;2.67;83.66;98775.16;103359;1312;22619;-57
2021/12/01 08:48:05;;;;;;;19.10;3.70;;;;;;;2.71;83.64;98768.70;103246;1313;25660;-59
2021/12/01 08:50:37;;;;;;;19.00;3.90;;;;;;;2.75;83.80;98761.95;103430;1312;25401;-57
2021/12/01 08:53:08;;;;;;;21.70;4.80;;;;;;;2.80;83.93;98759.32;103479;1312;25606;-60
2021/12/01 08:55:41;;;;;;;25.30;6.00;;;;;;;2.84;83.97;98755.36;103250;1313;25344;-58
2021/12/01 08:58:14;;;;;;;25.30;6.80;;;;;;;2.87;84.05;98755.89;103284;1312;22680;-59
2021/12/01 09:00:48;;;;;;;25.30;4.70;;;;;;;2.91;84.05;98752.09;103385;1318;24355;-57
2021/12/01 09:03:21;;;;;;;18.30;5.20;;;;;;;2.94;84.07;98744.48;104070;1312;23969;-60
2021/12/01 09:05:53;;;;;;;22.10;5.70;;;;;;;2.97;84.08;98737.20;103490;1317;22574;-61
2021/12/01 09:08:26;;;;;;;20.50;4.20;;;;;;;3.01;84.14;98733.60;103430;1312;24245;-59
2021/12/01 09:11:02;;;;;;;17.20;4.10;;;;;;;3.05;84.22;98725.28;103266;1312;24468;-60
2021/12/01 09:13:36;;;;;;;15.50;2.60;;;;;;;3.09;84.20;98713.98;103387;1312;22587;-59
2021/12/01 09:16:07;;;;;;;17.80;3.00;;;;;;;3.13;84.29;98706.33;103161;1313;22571;-59
2021/12/01 09:18:40;;;;;;;19.10;3.90;;;;;;;3.17;84.33;98702.75;103440;1318;23071;-59
2021/12/01 09:21:12;;;;;;;21.80;4.10;;;;;;;3.21;84.34;98700.13;103386;1312;24020;-60
2021/12/01 09:23:44;;;;;;;15.20;2.50;;;;;;;3.26;84.39;98694.21;103161;1317;22668;-59
2021/12/01 09:26:15;;;;;;;18.60;3.00;;;;;;;3.29;84.44;98683.91;103231;1312;26361;-60
2021/12/01 09:28:46;;;;;;;18.30;3.40;;;;;;;3.32;84.33;98683.05;103076;1312;22608;-60
2021/12/01 09:31:18;;;;;;;14.60;3.10;;;;;;;3.37;84.42;98679.13;103232;1312;25481;-61
2021/12/01 09:33:49;;;;;;;13.30;3.60;;;;;;;3.40;84.30;98675.27;103081;1312;22630;-59
2021/12/01 09:36:21;;;;;;;18.70;4.60;;;;;;;3.41;84.14;98674.91;103204;1313;25405;-59
2021/12/01 09:38:52;;;;;;;17.80;4.10;;;;;;;3.41;84.17;98664.48;103256;1312;25265;-57
2021/12/01 09:41:23;;;;;;;17.90;3.60;;;;;;;3.41;84.18;98661.81;103191;1312;22600;-59
2021/12/01 09:43:55;;;;;;;19.90;4.50;;;;;;;3.39;84.13;98656.00;103331;1313;25265;-57
2021/12/01 09:46:30;;;;;;;19.50;3.70;;;;;;;3.39;84.25;98650.73;103108;1312;22533;-60
2021/12/01 09:49:02;;;;;;;18.70;4.70;;;;;;;3.38;84.33;98656.10;103318;1312;22596;-60
2021/12/01 09:51:33;;;;;;;16.70;3.10;;;;;;;3.39;84.44;98644.08;102955;1312;24234;-61
2021/12/01 09:54:05;;;;;;;15.60;3.40;;;;;;;3.41;84.53;98639.05;103231;1313;26584;-58
2021/12/01 09:56:36;;;;;;;14.30;3.10;;;;;;;3.43;84.58;98634.23;103237;1313;22665;-60
2021/12/01 09:59:08;;;;;;;16.20;4.20;;;;;;;3.44;84.68;98633.20;103333;1312;26205;-60
2021/12/01 10:01:39;;;;;;;15.10;3.40;;;;;;;3.47;84.89;98631.19;103363;1313;22590;-58
2021/12/01 10:04:10;;;;;;;21.90;5.40;;;;;;;3.49;84.92;98622.72;103252;1312;22552;-59
2021/12/01 10:06:41;;;;;;;17.10;4.00;;;;;;;3.52;85.08;98620.98;103143;1312;24263;-59
2021/12/01 10:09:14;;;;;;;18.80;3.90;;;;;;;3.56;85.05;98619.52;103177;1312;25390;-59
2021/12/01 10:11:45;;;;;;;19.40;3.90;;;;;;;3.58;85.10;98616.08;103236;1313;25297;-58
2021/12/01 10:14:21;;;;;;;16.60;3.80;;;;;;;3.60;85.05;98617.17;103473;1312;22590;-59
2021/12/01 10:16:55;;;;;;;22.20;4.00;;;;;;;3.63;85.07;98613.17;103567;1312;22604;-59
2021/12/01 10:19:28;;;;;;;13.60;3.50;;;;;;;3.65;85.06;98604.88;103366;1312;25320;-60
2021/12/01 10:22:00;;;;;;;18.10;3.10;;;;;;;3.68;85.19;98599.89;103359;1313;25498;-61
2021/12/01 10:24:36;;;;;;;18.00;3.60;;;;;;;3.72;85.15;98589.22;103416;1312;22602;-58
2021/12/01 10:27:14;;;;;;;19.30;3.50;;;;;;;3.77;85.25;98585.64;103494;1317;24266;-60
2021/12/01 10:29:48;;;;;;;22.10;4.40;;;;;;;3.81;85.24;98580.77;103425;1313;23999;-60
2021/12/01 10:32:21;;;;;;;16.90;4.20;;;;;;;3.86;85.44;98580.41;103617;1312;22585;-59
2021/12/01 10:34:57;;;;;;;16.10;4.30;;;;;;;3.92;85.45;98577.66;103426;1312;25454;-58
2021/12/01 10:37:33;;;;;;;14.80;3.10;;;;;;;3.98;85.67;98578.67;104763;1312;22538;-60
2021/12/01 10:40:12;;;;;;;17.80;4.10;;;;;;;4.05;85.56;98576.13;104348;1317;22589;-59
2021/12/01 10:42:55;;;;;;;16.40;4.10;;;;;;;4.11;85.59;98574.22;103353;1312;22555;-59
2021/12/01 10:45:28;;;;;;;17.80;3.40;;;;;;;4.17;85.59;98567.66;103409;1312;22577;-62
2021/12/01 10:48:01;;;;;;;16.50;3.60;;;;;;;4.24;85.82;98565.97;103371;1312;22577;-61
2021/12/01 10:50:34;;;;;;;14.10;2.50;;;;;;;4.31;85.91;98557.75;103619;1312;22704;-59
2021/12/01 10:53:08;;;;;;;19.40;3.10;;;;;;;4.39;86.04;98551.80;103401;1312;25405;-58
2021/12/01 10:55:46;;;;;;;16.00;3.90;;;;;;;4.48;86.33;98538.73;103335;1312;22637;-60
2021/12/01 10:58:19;;;;;;;12.60;3.20;;;;;;;4.57;86.51;98530.59;103490;1316;22578;-60
2021/12/01 11:00:53;;;;;;;17.40;4.20;;;;;;;4.64;86.44;98518.73;103682;1312;22903;-59
2021/12/01 11:03:26;;;;;;;11.60;2.90;;;;;;;4.71;86.45;98514.77;103407;1313;22583;-59
2021/12/01 11:06:00;;;;;;;16.80;2.90;;;;;;;4.77;86.51;98507.70;103519;1317;22635;-60
2021/12/01 11:08:36;;;;;;;13.70;3.40;;;;;;;4.83;86.54;98503.33;103419;1312;22577;-59
2021/12/01 11:11:10;;;;;;;13.90;3.20;;;;;;;4.89;86.81;98502.35;103446;1312;22664;-60
2021/12/01 11:13:46;;;;;;;12.50;3.20;;;;;;;4.94;86.71;98489.75;103291;1312;22592;-59
2021/12/01 11:16:19;;;;;;;10.10;2.80;;;;;;;4.99;86.53;98485.34;103447;1313;24266;-60
2021/12/01 11:18:51;;;;;;;7.20;1.90;;;;;;;5.04;86.71;98476.39;103723;1312;25407;-60
2021/12/01 11:21:24;;;;;;;7.60;2.70;;;;;;;5.08;86.73;98467.95;103601;1312;25398;-60
2021/12/01 11:23:59;;;;;;;8.70;1.90;;;;;;;5.11;86.58;98462.00;103476;1312;26534;-60
2021/12/01 11:26:32;;;;;;;9.80;2.10;;;;;;;5.13;86.52;98457.45;103462;1312;22581;-60
2021/12/01 11:29:06;;;;;;;7.40;1.70;;;;;;;5.15;86.66;98448.77;103513;1312;23991;-61
2021/12/01 11:31:39;;;;;;;7.40;1.40;;;;;;;5.18;86.61;98441.98;106663;1313;22490;-61
2021/12/01 11:34:13;;;;;;;7.90;1.30;;;;;;;5.19;86.69;98433.17;104134;1312;26705;-61
2021/12/01 11:36:46;;;;;;;5.60;1.10;;;;;;;5.21;86.49;98424.80;103441;1312;22586;-60
2021/12/01 11:39:21;;;;;;;6.90;1.20;;;;;;;5.22;86.63;98414.20;103391;1312;22669;-61
2021/12/01 11:41:54;;;;;;;5.10;1.10;;;;;;;5.23;86.69;98410.09;103340;1313;22659;-60
2021/12/01 11:44:26;;;;;;;7.70;1.10;;;;;;;5.25;86.68;98399.95;106566;1312;22488;-60
2021/12/01 11:46:58;;;;;;;7.80;1.40;;;;;;;5.25;86.80;98393.86;104760;1313;22596;-59
2021/12/01 11:49:34;;;;;;;8.40;1.50;;;;;;;5.25;86.74;98382.85;103208;1317;25352;-60
2021/12/01 11:52:09;;;;;;;7.10;1.60;;;;;;;5.26;86.72;98376.88;103445;1312;22801;-60
2021/12/01 11:54:47;;;;;;;7.90;1.10;;;;;;;5.27;86.66;98366.82;103214;1318;22589;-60
2021/12/01 11:57:20;;;;;;;8.30;1.60;;;;;;;5.27;86.65;98362.13;103908;1317;27759;-60